createdAt,value
2022-08-01T00:00:09.961Z,11.32
2022-08-01T00:02:39.134Z,10.73
2022-08-01T00:05:07.039Z,10.27
2022-08-01T00:07:34.959Z,9.90
2022-08-01T00:10:03.700Z,9.25
2022-08-01T00:12:30.489Z,9.32
2022-08-01T00:14:57.314Z,9.65
2022-08-01T00:17:24.112Z,9.63
2022-08-01T00:19:50.907Z,9.95
2022-08-01T00:22:18.106Z,9.63
2022-08-01T00:24:45.056Z,10.45
2022-08-01T00:27:11.971Z,10.15
2022-08-01T00:30:12.381Z,10.32
2022-08-01T00:32:26.156Z,10.25
2022-08-01T00:34:52.970Z,11.80
2022-08-01T00:37:19.762Z,10.85
2022-08-01T00:39:46.559Z,11.80
2022-08-01T00:42:13.913Z,11.55
2022-08-01T00:44:41.415Z,11.73
2022-08-01T00:47:08.793Z,11.48
2022-08-01T00:49:35.909Z,11.40
2022-08-01T00:52:06.179Z,12.63
2022-08-01T00:54:33.684Z,12.07
2022-08-01T00:57:00.934Z,12.82
2022-08-01T00:59:28.422Z,13.27
2022-08-01T01:01:56.157Z,12.90
2022-08-01T01:04:23.545Z,12.68
2022-08-01T01:07:14.966Z,11.98
2022-08-01T01:09:41.846Z,12.30
2022-08-01T01:12:46.983Z,11.75
2022-08-01T01:15:28.823Z,10.95
2022-08-01T01:18:02.739Z,10.18
2022-08-01T01:20:44.218Z,9.80
2022-08-01T01:23:45.919Z,8.52
2022-08-01T01:26:43.468Z,7.85
2022-08-01T01:29:30.352Z,7.03
2022-08-01T01:32:30.921Z,6.68
2022-08-01T01:34:59.289Z,6.97
2022-08-01T01:37:27.940Z,6.68
2022-08-01T01:39:56.761Z,6.72
2022-08-01T01:42:26.584Z,6.78
2022-08-01T01:44:54.180Z,7.05
2022-08-01T01:47:22.393Z,6.47
2022-08-01T01:49:51.744Z,7.00
2022-08-01T01:52:20.217Z,6.53
2022-08-01T01:54:52.846Z,6.75
2022-08-01T01:57:20.858Z,7.00
2022-08-01T01:59:50.711Z,7.25
2022-08-01T02:02:18.372Z,6.80
2022-08-01T02:04:47.634Z,6.72
2022-08-01T02:07:20.116Z,6.10
2022-08-01T02:09:47.967Z,6.30
2022-08-01T02:12:17.747Z,6.20
2022-08-01T02:14:46.975Z,6.10
2022-08-01T02:17:18.283Z,6.32
2022-08-01T02:19:45.658Z,5.65
2022-08-01T02:22:21.073Z,6.18
2022-08-01T02:27:18.512Z,6.15
2022-08-01T02:29:53.236Z,6.68
2022-08-01T02:32:51.681Z,6.78
2022-08-01T02:36:29.681Z,6.95
2022-08-01T02:40:55.435Z,8.35
2022-08-01T02:43:24.377Z,8.30
2022-08-01T02:45:56.957Z,8.95
2022-08-01T02:48:26.779Z,8.48
2022-08-01T02:50:56.723Z,8.60
2022-08-01T02:53:41.629Z,8.10
2022-08-01T02:56:12.795Z,8.65
2022-08-01T02:58:41.632Z,9.18
2022-08-01T03:01:10.937Z,9.15
2022-08-01T03:03:38.732Z,9.20
2022-08-01T03:06:06.320Z,9.00
2022-08-01T03:08:34.086Z,7.53
2022-08-01T03:11:02.518Z,7.40
2022-08-01T03:13:31.877Z,7.25
2022-08-01T03:16:01.321Z,8.23
2022-08-01T03:18:29.247Z,7.32
2022-08-01T03:20:57.244Z,7.15
2022-08-01T03:23:37.751Z,7.00
2022-08-01T03:26:06.730Z,6.95
2022-08-01T03:28:33.840Z,6.75
2022-08-01T03:31:02.964Z,7.47
2022-08-01T03:33:30.333Z,7.28
2022-08-01T03:35:59.728Z,7.38
2022-08-01T03:38:31.286Z,7.38
2022-08-01T03:41:03.413Z,7.38
2022-08-01T03:43:42.605Z,8.13
2022-08-01T03:46:14.010Z,7.65
2022-08-01T03:48:43.970Z,7.82
2022-08-01T03:51:13.338Z,7.07
2022-08-01T03:53:43.203Z,7.93
2022-08-01T03:56:11.354Z,7.32
2022-08-01T03:58:41.292Z,7.47
2022-08-01T04:01:15.451Z,7.72
2022-08-01T04:03:43.323Z,7.10
2022-08-01T04:06:11.487Z,7.75
2022-08-01T04:08:39.413Z,7.78
2022-08-01T04:11:06.393Z,7.75
2022-08-01T04:13:37.027Z,7.72
2022-08-01T04:16:05.750Z,7.32
2022-08-01T04:18:33.174Z,7.60
2022-08-01T04:21:00.232Z,7.60
2022-08-01T04:23:30.094Z,7.10
2022-08-01T04:25:58.745Z,7.55
2022-08-01T04:28:26.405Z,7.22
2022-08-01T04:31:01.658Z,7.97
2022-08-01T04:33:30.971Z,8.02
2022-08-01T04:36:02.523Z,8.18
2022-08-01T04:38:34.918Z,8.75
2022-08-01T04:41:08.747Z,9.10
2022-08-01T04:43:44.209Z,8.55
2022-08-01T04:46:12.607Z,9.48
2022-08-01T04:48:40.805Z,9.55
2022-08-01T04:51:18.370Z,9.43
2022-08-01T04:53:46.851Z,9.02
2022-08-01T04:56:14.542Z,9.38
2022-08-01T04:58:45.079Z,10.77
2022-08-01T05:01:12.517Z,9.77
2022-08-01T05:03:39.468Z,8.50
2022-08-01T05:06:07.114Z,9.02
2022-08-01T05:08:33.969Z,9.25
2022-08-01T05:11:02.161Z,9.60
2022-08-01T05:13:28.990Z,9.10
2022-08-01T05:15:55.968Z,8.10
2022-08-01T05:18:26.188Z,7.50
2022-08-01T05:20:55.560Z,6.38
2022-08-01T05:23:42.090Z,5.38
2022-08-01T05:26:11.694Z,5.60
2022-08-01T05:28:42.095Z,5.10
2022-08-01T05:31:08.948Z,5.40
2022-08-01T05:33:36.044Z,4.82
2022-08-01T05:36:02.912Z,4.20
2022-08-01T05:38:29.683Z,4.38
2022-08-01T05:40:56.655Z,4.10
2022-08-01T05:43:28.482Z,3.60
2022-08-01T05:45:56.031Z,4.05
2022-08-01T05:48:22.924Z,3.75
2022-08-01T05:50:53.024Z,4.00
2022-08-01T05:53:23.594Z,3.97
2022-08-01T05:55:50.391Z,3.92
2022-08-01T05:58:17.214Z,4.40
2022-08-01T06:00:44.123Z,3.78
2022-08-01T06:03:12.373Z,4.40
2022-08-01T06:05:39.262Z,4.40
2022-08-01T06:08:06.211Z,5.00
2022-08-01T06:10:33.251Z,4.80
2022-08-01T06:13:03.889Z,4.68
2022-08-01T06:15:32.195Z,4.95
2022-08-01T06:17:59.196Z,5.15
2022-08-01T06:20:26.148Z,5.88
2022-08-01T06:22:53.139Z,5.65
2022-08-01T06:25:21.276Z,5.72
2022-08-01T06:27:48.834Z,5.10
2022-08-01T06:30:15.884Z,4.25
2022-08-01T06:32:42.696Z,3.80
2022-08-01T06:35:09.725Z,4.20
2022-08-01T06:37:36.595Z,4.10
2022-08-01T06:40:13.384Z,4.07
2022-08-01T06:42:45.226Z,3.47
2022-08-01T06:45:13.388Z,3.97
2022-08-01T06:47:41.602Z,3.85
2022-08-01T06:50:11.226Z,3.88
2022-08-01T06:52:38.780Z,3.83
2022-08-01T06:55:06.091Z,4.07
2022-08-01T06:57:33.780Z,4.10
2022-08-01T07:00:11.999Z,4.57
2022-08-01T07:02:39.077Z,5.10
2022-08-01T07:05:06.581Z,5.90
2022-08-01T07:07:33.387Z,6.00
2022-08-01T07:10:00.217Z,6.28
2022-08-01T07:12:27.066Z,5.88
2022-08-01T07:14:53.869Z,5.45
2022-08-01T07:17:21.682Z,5.53
2022-08-01T07:19:48.885Z,5.55
2022-08-01T07:22:20.970Z,5.75
2022-08-01T07:24:54.504Z,5.13
2022-08-01T07:27:25.754Z,4.80
2022-08-01T07:29:53.620Z,6.10
2022-08-01T07:32:21.908Z,7.65
2022-08-01T07:34:48.762Z,8.52
2022-08-01T07:37:15.797Z,9.30
2022-08-01T07:39:42.656Z,9.13
2022-08-01T07:42:09.943Z,10.00
2022-08-01T07:44:38.084Z,11.27
2022-08-01T07:47:06.186Z,10.70
2022-08-01T07:49:39.110Z,11.02
2022-08-01T07:52:06.640Z,11.05
2022-08-01T07:54:34.638Z,9.45
2022-08-01T07:57:03.364Z,8.40
2022-08-01T07:59:32.582Z,6.07
2022-08-01T08:02:00.310Z,5.88
2022-08-01T08:04:28.330Z,6.70
2022-08-01T08:06:55.360Z,6.45
2022-08-01T08:09:22.591Z,5.13
2022-08-01T08:11:49.569Z,4.65
2022-08-01T08:14:19.076Z,4.70
2022-08-01T08:16:46.368Z,5.55
2022-08-01T08:19:13.847Z,5.35
2022-08-01T08:21:40.874Z,5.38
2022-08-01T08:24:25.854Z,6.07
2022-08-01T08:26:56.714Z,5.10
2022-08-01T08:29:24.195Z,5.13
2022-08-01T08:31:53.005Z,4.20
2022-08-01T08:34:20.601Z,4.28
2022-08-01T08:36:49.769Z,4.00
2022-08-01T08:39:19.553Z,3.70
2022-08-01T08:41:49.664Z,4.13
2022-08-01T08:44:18.074Z,3.13
2022-08-01T08:46:52.024Z,2.80
2022-08-01T08:49:24.480Z,3.55
2022-08-01T08:51:53.838Z,2.88
2022-08-01T08:54:31.069Z,3.55
2022-08-01T08:57:00.309Z,3.78
2022-08-01T08:59:29.048Z,3.38
2022-08-01T09:01:56.645Z,3.10
2022-08-01T09:04:26.040Z,3.17
2022-08-01T09:06:54.919Z,3.70
2022-08-01T09:09:21.820Z,3.13
2022-08-01T09:11:56.676Z,2.78
2022-08-01T09:14:27.317Z,2.90
2022-08-01T09:17:09.729Z,3.22
2022-08-01T09:19:42.702Z,3.20
2022-08-01T09:22:14.930Z,4.00
2022-08-01T09:24:42.668Z,4.45
2022-08-01T09:27:22.776Z,3.90
2022-08-01T09:30:01.098Z,4.20
2022-08-01T09:32:35.926Z,3.38
2022-08-01T09:35:31.081Z,3.90
2022-08-01T09:38:16.812Z,3.05
2022-08-01T09:40:59.104Z,3.25
2022-08-01T09:43:28.460Z,3.47
2022-08-01T09:45:58.844Z,4.07
2022-08-01T09:48:28.081Z,3.92
2022-08-01T09:51:03.787Z,3.65
2022-08-01T09:53:50.914Z,4.22
2022-08-01T09:56:24.236Z,3.80
2022-08-01T09:58:59.906Z,3.40
2022-08-01T10:01:36.569Z,3.50
2022-08-01T10:04:11.350Z,3.53
2022-08-01T10:06:40.106Z,3.53
2022-08-01T10:09:08.699Z,3.30
2022-08-01T10:11:40.073Z,3.30
2022-08-01T10:14:08.325Z,3.35
2022-08-01T10:16:38.412Z,3.45
2022-08-01T10:19:14.697Z,3.30
2022-08-01T10:21:56.619Z,3.33
2022-08-01T10:24:29.629Z,3.00
2022-08-01T10:27:08.055Z,3.58
2022-08-01T10:29:46.112Z,3.20
2022-08-01T10:32:14.797Z,3.03
2022-08-01T10:34:44.971Z,3.13
2022-08-01T10:37:14.364Z,3.10
2022-08-01T10:39:43.207Z,3.00
2022-08-01T10:42:15.983Z,2.80
2022-08-01T10:44:47.122Z,3.45
2022-08-01T10:47:24.700Z,3.33
2022-08-01T10:50:12.540Z,3.15
2022-08-01T10:53:24.372Z,3.40
2022-08-01T10:56:02.886Z,3.17
2022-08-01T10:58:42.575Z,3.28
2022-08-01T11:01:20.982Z,3.63
2022-08-01T11:04:16.066Z,2.72
2022-08-01T11:06:52.430Z,2.65
2022-08-01T11:09:36.469Z,3.35
2022-08-01T11:12:23.228Z,2.92
2022-08-01T11:15:00.498Z,3.33
2022-08-01T11:17:37.714Z,2.88
2022-08-01T11:20:09.910Z,2.83
2022-08-01T11:22:58.579Z,3.17
2022-08-01T11:26:06.817Z,2.80
2022-08-01T11:28:30.205Z,3.13
2022-08-01T11:31:13.906Z,3.05
2022-08-01T11:33:45.943Z,3.10
2022-08-01T11:36:14.195Z,3.65
2022-08-01T11:38:43.513Z,3.40
2022-08-01T11:41:38.578Z,4.53
2022-08-01T11:44:07.261Z,3.40
2022-08-01T11:47:00.384Z,2.83
2022-08-01T11:49:30.389Z,2.85
2022-08-01T11:52:09.008Z,3.17
2022-08-01T11:54:48.127Z,3.08
2022-08-01T11:57:22.918Z,2.85
2022-08-01T12:02:40.288Z,3.20
2022-08-01T12:05:11.722Z,3.30
2022-08-01T12:07:42.222Z,3.40
2022-08-01T12:10:10.070Z,3.30
2022-08-01T12:12:42.623Z,3.00
2022-08-01T12:15:10.517Z,3.35
2022-08-01T12:17:38.925Z,2.83
2022-08-01T12:20:09.361Z,3.20
2022-08-01T12:22:36.795Z,2.97
2022-08-01T12:25:21.992Z,2.95
2022-08-01T12:27:54.371Z,2.95
2022-08-01T12:30:23.859Z,2.30
2022-08-01T12:32:51.226Z,2.42
2022-08-01T12:35:23.912Z,1.90
2022-08-01T12:38:18.771Z,2.63
2022-08-01T12:40:53.172Z,3.05
2022-08-01T12:43:28.741Z,2.65
2022-08-01T12:45:59.299Z,2.83
2022-08-01T12:48:27.363Z,2.33
2022-08-01T12:50:56.943Z,2.63
2022-08-01T12:53:24.074Z,2.55
2022-08-01T12:55:58.285Z,2.83
2022-08-01T12:58:33.073Z,2.45
2022-08-01T13:01:11.237Z,3.03
2022-08-01T13:03:38.689Z,2.72
2022-08-01T13:06:13.564Z,2.95
2022-08-01T13:08:40.564Z,2.67
2022-08-01T13:11:16.485Z,2.95
2022-08-01T13:13:49.756Z,2.70
2022-08-01T13:16:48.769Z,2.38
2022-08-01T13:19:14.827Z,2.80
2022-08-01T13:21:57.987Z,2.97
2022-08-01T13:24:29.905Z,3.60
2022-08-01T13:27:01.464Z,3.20
2022-08-01T13:29:38.924Z,3.33
2022-08-01T13:32:29.153Z,3.55
2022-08-01T13:35:09.124Z,4.38
2022-08-01T13:37:38.562Z,4.10
2022-08-01T13:40:07.844Z,4.10
2022-08-01T13:42:35.207Z,3.50
2022-08-01T13:45:03.812Z,3.50
2022-08-01T13:47:32.509Z,3.65
2022-08-01T13:50:03.304Z,3.58
2022-08-01T13:52:31.640Z,3.30
2022-08-01T13:54:59.273Z,3.60
2022-08-01T13:57:26.333Z,3.38
2022-08-01T14:00:06.702Z,3.17
2022-08-01T14:02:38.890Z,3.25
2022-08-01T14:05:06.285Z,2.55
2022-08-01T14:07:33.944Z,2.40
2022-08-01T14:10:18.606Z,2.70
2022-08-01T14:12:48.045Z,2.38
2022-08-01T14:15:37.076Z,2.67
2022-08-01T14:18:02.174Z,2.88
2022-08-01T14:20:29.327Z,2.70
2022-08-01T14:22:56.443Z,2.50
2022-08-01T14:26:00.192Z,2.60
2022-08-01T14:28:10.326Z,2.78
2022-08-01T14:30:37.764Z,2.72
2022-08-01T14:33:04.779Z,2.17
2022-08-01T14:36:05.775Z,2.35
2022-08-01T14:38:30.570Z,3.17
2022-08-01T14:41:00.242Z,2.63
2022-08-01T14:43:33.095Z,3.15
2022-08-01T14:46:02.069Z,2.50
2022-08-01T14:48:30.358Z,2.65
2022-08-01T14:50:58.302Z,1.95
2022-08-01T14:53:25.233Z,1.98
2022-08-01T14:55:52.090Z,2.50
2022-08-01T14:58:19.011Z,2.90
2022-08-01T15:00:46.371Z,2.30
2022-08-01T15:03:13.556Z,2.53
2022-08-01T15:05:40.395Z,2.50
2022-08-01T15:08:07.798Z,2.10
2022-08-01T15:10:34.785Z,2.35
2022-08-01T15:13:02.512Z,2.22
2022-08-01T15:15:29.478Z,2.38
2022-08-01T15:17:57.195Z,2.47
2022-08-01T15:20:24.195Z,2.55
2022-08-01T15:22:51.091Z,2.63
2022-08-01T15:25:17.864Z,2.58
2022-08-01T15:27:44.856Z,2.13
2022-08-01T15:30:12.310Z,1.90
2022-08-01T15:32:40.282Z,2.30
2022-08-01T15:35:08.253Z,3.20
2022-08-01T15:37:38.457Z,2.45
2022-08-01T15:40:08.331Z,2.33
2022-08-01T15:42:35.842Z,2.63
2022-08-01T15:45:02.852Z,2.33
2022-08-01T15:47:30.876Z,1.92
2022-08-01T15:50:02.329Z,2.35
2022-08-01T15:52:30.922Z,1.80
2022-08-01T15:54:58.910Z,2.53
2022-08-01T15:57:25.777Z,1.77
2022-08-01T15:59:52.678Z,2.20
2022-08-01T16:02:19.647Z,2.50
2022-08-01T16:04:46.467Z,2.30
2022-08-01T16:07:13.460Z,1.80
2022-08-01T16:09:40.377Z,2.00
2022-08-01T16:12:08.319Z,1.80
2022-08-01T16:14:35.541Z,2.05
2022-08-01T16:17:02.409Z,2.30
2022-08-01T16:19:29.266Z,1.92
2022-08-01T16:21:56.059Z,2.35
2022-08-01T16:24:23.669Z,1.92
2022-08-01T16:26:50.547Z,2.05
2022-08-01T16:29:17.472Z,2.13
2022-08-01T16:32:01.751Z,1.75
2022-08-01T16:34:31.019Z,1.77
2022-08-01T16:36:58.076Z,2.40
2022-08-01T16:39:25.643Z,1.70
2022-08-01T16:41:55.159Z,2.00
2022-08-01T16:44:26.778Z,1.60
2022-08-01T16:47:05.274Z,1.88
2022-08-01T16:49:32.675Z,1.73
2022-08-01T16:51:59.835Z,2.03
2022-08-01T16:54:26.769Z,1.90
2022-08-01T16:56:56.182Z,1.88
2022-08-01T16:59:34.603Z,1.83
2022-08-01T17:02:09.483Z,1.70
2022-08-01T17:04:36.485Z,1.77
2022-08-01T17:07:03.830Z,1.77
2022-08-01T17:09:30.869Z,1.80
2022-08-01T17:11:57.650Z,1.60
2022-08-01T17:14:25.668Z,2.35
2022-08-01T17:16:54.972Z,1.50
2022-08-01T17:19:27.122Z,1.95
2022-08-01T17:21:59.962Z,1.80
2022-08-01T17:24:26.777Z,1.52
2022-08-01T17:26:53.712Z,1.85
2022-08-01T17:29:20.564Z,1.52
2022-08-01T17:31:47.350Z,1.75
2022-08-01T17:34:14.200Z,1.42
2022-08-01T17:36:41.118Z,1.80
2022-08-01T17:39:09.406Z,1.60
2022-08-01T17:41:36.182Z,2.38
2022-08-01T17:44:03.004Z,2.03
2022-08-01T17:46:30.477Z,2.00
2022-08-01T17:48:57.696Z,1.80
2022-08-01T17:51:24.510Z,1.70
2022-08-01T17:53:57.556Z,1.67
2022-08-01T17:56:26.398Z,1.73
2022-08-01T17:58:53.643Z,1.65
2022-08-01T18:01:21.203Z,1.80
2022-08-01T18:03:48.377Z,1.83
2022-08-01T18:06:23.177Z,1.67
2022-08-01T18:11:22.953Z,2.10
2022-08-01T18:13:51.781Z,2.00
2022-08-01T18:16:19.184Z,1.90
2022-08-01T18:18:46.049Z,2.03
2022-08-01T18:21:13.124Z,2.47
2022-08-01T18:23:40.101Z,2.05
2022-08-01T18:26:11.059Z,2.35
2022-08-01T18:28:46.221Z,2.05
2022-08-01T18:31:16.490Z,2.17
2022-08-01T18:33:43.547Z,2.67
2022-08-01T18:36:11.429Z,2.42
2022-08-01T18:38:55.445Z,2.22
2022-08-01T18:41:23.027Z,2.15
2022-08-01T18:43:52.117Z,2.58
2022-08-01T18:46:30.717Z,2.40
2022-08-01T18:48:58.159Z,2.00
2022-08-01T18:51:26.587Z,2.25
2022-08-01T18:53:55.735Z,2.20
2022-08-01T18:56:22.565Z,1.88
2022-08-01T18:58:49.394Z,2.80
2022-08-01T19:01:16.245Z,2.58
2022-08-01T19:03:43.098Z,2.80
2022-08-01T19:06:10.100Z,2.33
2022-08-01T19:08:38.103Z,2.22
2022-08-01T19:11:05.897Z,2.40
2022-08-01T19:13:33.487Z,2.20
2022-08-01T19:16:00.485Z,2.20
2022-08-01T19:18:28.394Z,2.00
2022-08-01T19:20:55.312Z,2.80
2022-08-01T19:23:40.727Z,2.33
2022-08-01T19:26:12.486Z,2.33
2022-08-01T19:28:46.019Z,2.38
2022-08-01T19:31:14.971Z,1.95
2022-08-01T19:33:42.742Z,2.72
2022-08-01T19:36:16.952Z,2.50
2022-08-01T19:38:45.254Z,2.53
2022-08-01T19:41:13.871Z,2.28
2022-08-01T19:43:46.154Z,3.15
2022-08-01T19:46:17.806Z,2.83
2022-08-01T19:48:49.899Z,2.42
2022-08-01T19:51:17.803Z,2.70
2022-08-01T19:53:55.567Z,2.67
2022-08-01T19:56:25.737Z,2.60
2022-08-01T19:59:00.079Z,2.72
2022-08-01T20:01:27.721Z,3.15
2022-08-01T20:03:55.850Z,2.85
2022-08-01T20:06:24.536Z,2.60
2022-08-01T20:08:54.492Z,2.88
2022-08-01T20:11:23.376Z,2.50
2022-08-01T20:13:51.627Z,3.58
2022-08-01T20:16:18.687Z,2.78
2022-08-01T20:18:45.663Z,2.72
2022-08-01T20:25:22.455Z,2.83
2022-08-01T20:27:49.304Z,2.40
2022-08-01T20:30:16.161Z,2.50
2022-08-01T20:32:46.641Z,2.70
2022-08-01T20:35:16.224Z,2.30
2022-08-01T20:38:03.824Z,2.85
2022-08-01T20:40:30.842Z,2.60
2022-08-01T20:42:58.413Z,2.72
2022-08-01T20:45:27.092Z,2.78
2022-08-01T20:47:55.288Z,2.83
2022-08-01T20:50:54.316Z,2.67
2022-08-01T20:53:26.191Z,3.08
2022-08-01T20:56:25.049Z,2.53
2022-08-01T20:59:01.685Z,2.88
2022-08-01T21:01:32.748Z,3.03
2022-08-01T21:04:06.121Z,2.97
2022-08-01T21:06:49.635Z,3.58
2022-08-01T21:09:23.130Z,2.53
2022-08-01T21:11:51.184Z,3.05
2022-08-01T21:14:21.217Z,3.00
2022-08-01T21:17:01.236Z,3.08
2022-08-01T21:19:30.149Z,2.88
2022-08-01T21:22:10.210Z,3.30
2022-08-01T21:24:58.356Z,2.95
2022-08-01T21:27:33.591Z,3.70
2022-08-01T21:30:04.095Z,3.08
2022-08-01T21:32:32.970Z,2.70
2022-08-01T21:35:01.409Z,3.60
2022-08-01T21:37:30.125Z,3.15
2022-08-01T21:39:58.323Z,3.15
2022-08-01T21:42:27.904Z,2.95
2022-08-01T21:44:57.528Z,3.00
2022-08-01T21:47:27.646Z,3.20
2022-08-01T21:49:54.496Z,2.97
2022-08-01T21:52:23.091Z,3.05
2022-08-01T21:55:05.040Z,3.08
2022-08-01T21:58:05.896Z,3.03
2022-08-01T22:00:37.248Z,3.38
2022-08-01T22:03:47.143Z,3.58
2022-08-01T22:06:16.023Z,3.20
2022-08-01T22:08:53.891Z,3.25
2022-08-01T22:11:24.970Z,3.33
2022-08-01T22:13:59.985Z,3.30
2022-08-01T22:16:27.581Z,3.20
2022-08-01T22:18:54.866Z,3.30
2022-08-01T22:21:22.176Z,3.60
2022-08-01T22:23:51.786Z,3.25
2022-08-01T22:26:28.622Z,2.78
2022-08-01T22:28:56.098Z,3.42
2022-08-01T22:31:23.186Z,3.78
2022-08-01T22:33:51.218Z,3.40
2022-08-01T22:36:19.812Z,3.60
2022-08-01T22:38:46.604Z,2.85
2022-08-01T22:45:07.252Z,3.67
2022-08-01T22:48:12.416Z,3.58
2022-08-01T22:50:44.328Z,2.78
2022-08-01T22:53:25.866Z,3.55
2022-08-01T22:55:58.344Z,3.40
2022-08-01T22:58:33.626Z,3.72
2022-08-01T23:01:01.904Z,3.70
2022-08-01T23:03:36.923Z,3.03
2022-08-01T23:06:04.755Z,3.67
2022-08-01T23:08:32.408Z,3.10
2022-08-01T23:11:05.274Z,4.15
2022-08-01T23:13:32.576Z,3.10
2022-08-01T23:16:01.278Z,3.53
2022-08-01T23:18:28.718Z,4.15
2022-08-01T23:21:01.424Z,4.07
2022-08-01T23:23:30.840Z,3.85
2022-08-01T23:25:59.942Z,3.88
2022-08-01T23:28:28.605Z,3.67
2022-08-01T23:30:55.942Z,3.72
2022-08-01T23:33:22.794Z,4.32
2022-08-01T23:35:49.615Z,3.42
2022-08-01T23:38:17.007Z,3.55
2022-08-01T23:40:44.608Z,3.50
2022-08-01T23:43:16.131Z,3.40
2022-08-01T23:46:03.230Z,3.63
2022-08-01T23:48:33.286Z,3.53
2022-08-01T23:51:00.223Z,3.92
2022-08-01T23:53:30.586Z,3.65
2022-08-01T23:55:59.169Z,4.78
